createdAt,value
2019-04-06T00:00:50.272Z,14.37
2019-04-06T00:03:18.572Z,14.37
2019-04-06T00:05:46.860Z,14.40
2019-04-06T00:08:15.234Z,14.63
2019-04-06T00:10:43.525Z,14.37
2019-04-06T00:13:11.837Z,13.67
2019-04-06T00:15:40.126Z,14.13
2019-04-06T00:18:08.491Z,14.67
2019-04-06T00:20:36.776Z,14.33
2019-04-06T00:23:05.149Z,14.00
2019-04-06T00:25:43.906Z,14.63
2019-04-06T00:28:04.179Z,14.13
2019-04-06T00:30:34.130Z,13.93
2019-04-06T00:33:04.047Z,14.03
2019-04-06T00:35:32.346Z,13.43
2019-04-06T00:38:00.627Z,14.27
2019-04-06T00:40:28.923Z,13.93
2019-04-06T00:42:57.215Z,13.47
2019-04-06T00:45:25.513Z,13.33
2019-04-06T00:47:53.808Z,14.03
2019-04-06T00:50:22.105Z,14.07
2019-04-06T00:52:50.406Z,13.43
2019-04-06T00:55:18.947Z,14.03
2019-04-06T00:57:47.233Z,13.87
2019-04-06T01:00:15.772Z,14.50
2019-04-06T01:02:44.181Z,14.77
2019-04-06T01:05:12.670Z,14.53
2019-04-06T01:07:40.972Z,14.30
2019-04-06T01:10:09.329Z,14.87
2019-04-06T01:12:37.616Z,14.37
2019-04-06T01:15:07.559Z,15.03
2019-04-06T01:17:35.826Z,13.50
2019-04-06T01:20:05.269Z,14.60
2019-04-06T01:22:33.546Z,14.43
2019-04-06T01:25:01.840Z,15.00
2019-04-06T01:27:30.118Z,14.93
2019-04-06T01:29:58.409Z,13.80
2019-04-06T01:32:26.693Z,14.37
2019-04-06T01:34:55.065Z,13.93
2019-04-06T01:37:23.349Z,13.80
2019-04-06T01:39:51.635Z,14.77
2019-04-06T01:42:19.960Z,13.73
2019-04-06T01:44:48.247Z,13.93
2019-04-06T01:47:16.572Z,14.37
2019-04-06T01:49:44.849Z,14.20
2019-04-06T01:52:13.152Z,14.03
2019-04-06T01:54:41.436Z,14.53
2019-04-06T01:57:09.732Z,14.00
2019-04-06T01:59:38.008Z,14.73
2019-04-06T02:02:13.706Z,14.50
2019-04-06T02:04:41.999Z,14.43
2019-04-06T02:07:10.276Z,14.63
2019-04-06T02:09:38.547Z,14.77
2019-04-06T02:12:06.840Z,14.70
2019-04-06T02:14:35.125Z,14.40
2019-04-06T02:17:03.415Z,13.93
2019-04-06T02:19:31.692Z,14.77
2019-04-06T02:22:00.001Z,13.73
2019-04-06T02:24:28.286Z,13.87
2019-04-06T02:26:56.576Z,13.93
2019-04-06T02:29:24.863Z,14.37
2019-04-06T02:31:57.817Z,13.70
2019-04-06T02:34:44.104Z,14.30
2019-04-06T02:37:16.729Z,14.87
2019-04-06T02:40:07.724Z,15.13
2019-04-06T02:42:54.677Z,14.10
2019-04-06T02:45:22.954Z,14.40
2019-04-06T02:47:51.503Z,14.27
2019-04-06T02:50:19.865Z,14.13
2019-04-06T02:52:48.159Z,14.93
2019-04-06T02:55:16.440Z,13.53
2019-04-06T02:57:44.733Z,14.37
2019-04-06T03:00:13.278Z,13.50
2019-04-06T03:02:41.552Z,14.50
2019-04-06T03:05:09.910Z,15.03
2019-04-06T03:07:38.198Z,14.77
2019-04-06T03:10:06.941Z,14.10
2019-04-06T03:12:35.295Z,13.40
2019-04-06T03:15:03.795Z,14.07
2019-04-06T03:17:32.093Z,13.90
2019-04-06T03:20:00.453Z,13.47
2019-04-06T03:22:28.730Z,14.27
2019-04-06T03:24:57.058Z,13.80
2019-04-06T03:27:25.384Z,13.87
2019-04-06T03:29:58.487Z,14.50
2019-04-06T03:32:23.770Z,15.10
2019-04-06T03:34:52.278Z,14.20
2019-04-06T03:37:20.524Z,14.10
2019-04-06T03:39:48.806Z,14.23
2019-04-06T03:42:17.095Z,15.03
2019-04-06T03:44:45.365Z,14.93
2019-04-06T03:47:13.660Z,14.97
2019-04-06T03:49:42.419Z,14.53
2019-04-06T03:52:10.694Z,14.50
2019-04-06T03:54:38.998Z,13.87
2019-04-06T03:57:14.614Z,14.87
2019-04-06T03:59:37.318Z,15.53
2019-04-06T04:02:05.588Z,14.43
2019-04-06T04:04:33.886Z,14.27
2019-04-06T04:07:02.394Z,13.23
2019-04-06T04:09:30.741Z,15.03
2019-04-06T04:11:59.159Z,16.60
2019-04-06T04:14:27.495Z,15.57
2019-04-06T04:16:55.796Z,15.17
2019-04-06T04:19:24.403Z,16.07
2019-04-06T04:21:52.689Z,16.17
2019-04-06T04:24:20.993Z,15.50
2019-04-06T04:26:49.273Z,15.03
2019-04-06T04:29:17.575Z,15.13
2019-04-06T04:31:45.880Z,14.57
2019-04-06T04:34:14.334Z,15.67
2019-04-06T04:36:42.606Z,16.07
2019-04-06T04:39:10.911Z,15.57
2019-04-06T04:41:40.311Z,17.03
2019-04-06T04:44:08.779Z,15.40
2019-04-06T04:46:37.050Z,16.13
2019-04-06T04:49:05.351Z,16.50
2019-04-06T04:51:33.644Z,16.17
2019-04-06T04:54:01.936Z,15.27
2019-04-06T04:56:30.230Z,15.57
2019-04-06T04:58:58.659Z,17.43
2019-04-06T05:01:26.897Z,16.73
2019-04-06T05:03:55.196Z,16.43
2019-04-06T05:06:23.474Z,17.07
2019-04-06T05:08:51.798Z,16.80
2019-04-06T05:11:20.150Z,17.17
2019-04-06T05:13:48.435Z,16.57
2019-04-06T05:16:16.991Z,16.40
2019-04-06T05:18:45.337Z,16.50
2019-04-06T05:21:13.900Z,15.20
2019-04-06T05:23:42.190Z,14.40
2019-04-06T05:26:10.531Z,15.07
2019-04-06T05:28:38.816Z,15.53
2019-04-06T05:31:07.172Z,16.03
2019-04-06T05:33:35.464Z,16.80
2019-04-06T05:36:04.204Z,16.60
2019-04-06T05:38:32.479Z,16.47
2019-04-06T05:41:00.775Z,16.33
2019-04-06T05:43:29.053Z,17.57
2019-04-06T05:45:57.358Z,16.83
2019-04-06T05:48:25.647Z,17.70
2019-04-06T05:50:53.939Z,19.43
2019-04-06T05:53:22.303Z,18.07
2019-04-06T05:55:50.616Z,18.07
2019-04-06T05:58:18.877Z,17.77
2019-04-06T06:00:47.196Z,17.10
2019-04-06T06:03:15.614Z,17.13
2019-04-06T06:05:44.048Z,18.07
2019-04-06T06:08:12.407Z,18.50
2019-04-06T06:10:40.951Z,19.00
2019-04-06T06:13:09.475Z,17.73
2019-04-06T06:15:37.871Z,19.13
2019-04-06T06:18:06.200Z,19.70
2019-04-06T06:20:34.564Z,20.13
2019-04-06T06:23:02.793Z,19.33
2019-04-06T06:25:48.071Z,21.47
2019-04-06T06:28:16.347Z,22.03
2019-04-06T06:30:44.654Z,21.37
2019-04-06T06:33:12.948Z,21.00
2019-04-06T06:35:41.251Z,20.13
2019-04-06T06:38:09.543Z,20.40
2019-04-06T06:40:37.850Z,21.10
2019-04-06T06:43:06.140Z,20.20
2019-04-06T06:45:34.453Z,21.17
2019-04-06T06:48:02.754Z,20.90
2019-04-06T06:50:31.040Z,21.60
2019-04-06T06:52:59.337Z,18.33
2019-04-06T06:55:27.635Z,19.60
2019-04-06T06:58:03.592Z,21.57
2019-04-06T07:00:31.892Z,21.30
2019-04-06T07:03:00.184Z,20.17
2019-04-06T07:05:28.491Z,20.63
2019-04-06T07:07:56.774Z,20.80
2019-04-06T07:10:25.072Z,20.57
2019-04-06T07:12:53.351Z,20.93
2019-04-06T07:15:21.664Z,21.27
2019-04-06T07:17:50.021Z,21.83
2019-04-06T07:20:18.604Z,21.97
2019-04-06T07:22:46.888Z,22.20
2019-04-06T07:25:15.240Z,22.27
2019-04-06T07:27:43.620Z,23.03
2019-04-06T07:30:12.229Z,22.87
2019-04-06T07:32:40.540Z,23.37
2019-04-06T07:35:09.375Z,23.50
2019-04-06T07:37:37.694Z,23.23
2019-04-06T07:40:08.898Z,23.27
2019-04-06T07:42:37.168Z,23.83
2019-04-06T07:45:08.448Z,24.57
2019-04-06T07:47:36.937Z,24.60
2019-04-06T07:50:08.407Z,23.83
2019-04-06T07:52:36.708Z,24.27
2019-04-06T07:55:08.293Z,23.00
2019-04-06T07:57:36.614Z,24.63
2019-04-06T08:00:08.438Z,25.77
2019-04-06T08:02:36.798Z,23.77
2019-04-06T08:05:06.733Z,26.07
2019-04-06T08:07:35.019Z,26.00
2019-04-06T08:10:03.486Z,24.80
2019-04-06T08:12:31.784Z,24.87
2019-04-06T08:15:00.112Z,25.50
2019-04-06T08:17:28.552Z,25.63
2019-04-06T08:19:56.776Z,24.37
2019-04-06T08:22:25.062Z,25.37
2019-04-06T08:24:53.521Z,24.33
2019-04-06T08:27:21.818Z,24.87
2019-04-06T08:29:50.169Z,25.10
2019-04-06T08:32:18.817Z,24.97
2019-04-06T08:34:47.169Z,24.20
2019-04-06T08:37:15.553Z,25.13
2019-04-06T08:39:43.863Z,24.90
2019-04-06T08:42:12.145Z,25.10
2019-04-06T08:44:40.672Z,25.67
2019-04-06T08:47:09.255Z,25.37
2019-04-06T08:49:37.512Z,24.27
2019-04-06T08:52:06.067Z,24.93
2019-04-06T08:54:34.431Z,24.27
2019-04-06T08:57:02.920Z,25.13
2019-04-06T08:59:31.449Z,26.43
2019-04-06T09:01:59.938Z,24.77
2019-04-06T09:04:28.155Z,25.97
2019-04-06T09:06:56.441Z,25.50
2019-04-06T09:09:24.752Z,26.67
2019-04-06T09:11:53.036Z,24.97
2019-04-06T09:14:21.395Z,25.30
2019-04-06T09:16:49.650Z,24.67
2019-04-06T09:19:17.948Z,24.90
2019-04-06T09:21:46.240Z,25.90
2019-04-06T09:24:14.725Z,25.43
2019-04-06T09:26:43.005Z,25.70
2019-04-06T09:29:22.567Z,24.27
2019-04-06T09:31:41.322Z,26.80
2019-04-06T09:34:09.610Z,25.07
2019-04-06T09:36:37.905Z,24.10
2019-04-06T09:39:06.727Z,25.93
2019-04-06T09:41:35.098Z,25.20
2019-04-06T09:44:04.654Z,25.07
2019-04-06T09:46:37.598Z,26.07
2019-04-06T09:49:10.444Z,24.40
2019-04-06T09:51:56.477Z,26.30
2019-04-06T09:54:32.127Z,25.20
2019-04-06T09:57:02.070Z,23.97
2019-04-06T09:59:43.845Z,24.87
2019-04-06T10:02:22.774Z,26.90
2019-04-06T10:05:07.667Z,23.37
2019-04-06T10:07:46.306Z,22.90
2019-04-06T10:10:34.323Z,23.53
2019-04-06T10:13:07.084Z,24.00
2019-04-06T10:15:42.680Z,24.57
2019-04-06T10:18:27.838Z,24.33
2019-04-06T10:21:16.312Z,22.90
2019-04-06T10:24:01.347Z,23.80
2019-04-06T10:26:36.941Z,22.83
2019-04-06T10:29:12.707Z,23.67
2019-04-06T10:31:42.635Z,23.00
2019-04-06T10:34:31.083Z,22.13
2019-04-06T10:37:15.835Z,22.63
2019-04-06T10:39:51.719Z,23.03
2019-04-06T10:42:24.341Z,23.80
2019-04-06T10:45:03.154Z,24.10
2019-04-06T10:47:33.110Z,23.00
2019-04-06T10:50:09.077Z,23.63
2019-04-06T10:52:50.164Z,22.63
2019-04-06T10:55:25.848Z,22.00
2019-04-06T10:58:11.899Z,22.53
2019-04-06T11:00:53.859Z,21.53
2019-04-06T11:03:35.601Z,22.40
2019-04-06T11:06:11.059Z,21.90
2019-04-06T11:08:56.018Z,21.50
2019-04-06T11:11:28.791Z,22.80
2019-04-06T11:14:04.356Z,21.13
2019-04-06T11:16:34.289Z,21.77
2019-04-06T11:19:06.888Z,21.37
2019-04-06T11:21:42.676Z,21.20
2019-04-06T11:24:28.955Z,21.30
2019-04-06T11:26:58.900Z,21.43
2019-04-06T11:29:44.711Z,20.20
2019-04-06T11:32:14.648Z,20.90
2019-04-06T11:35:00.661Z,20.80
2019-04-06T11:37:46.777Z,19.70
2019-04-06T11:40:16.999Z,19.77
2019-04-06T11:42:55.712Z,19.63
2019-04-06T11:45:35.114Z,18.93
2019-04-06T11:48:07.463Z,18.53
2019-04-06T11:50:40.118Z,18.57
2019-04-06T11:53:10.124Z,18.47
2019-04-06T11:55:40.062Z,18.63
2019-04-06T11:58:12.958Z,19.03
2019-04-06T12:00:45.317Z,18.33
2019-04-06T12:03:18.082Z,18.43
2019-04-06T12:05:56.950Z,18.50
2019-04-06T12:08:43.225Z,17.67
2019-04-06T12:11:13.170Z,18.10
2019-04-06T12:13:48.944Z,16.90
2019-04-06T12:16:18.862Z,17.33
2019-04-06T12:18:51.646Z,17.27
2019-04-06T12:21:30.613Z,16.03
2019-04-06T12:24:00.597Z,17.37
2019-04-06T12:26:45.593Z,17.77
2019-04-06T12:29:31.684Z,17.13
2019-04-06T12:32:16.366Z,16.70
2019-04-06T12:35:04.319Z,17.30
2019-04-06T12:37:40.372Z,16.57
2019-04-06T12:40:16.311Z,17.27
2019-04-06T12:42:46.228Z,17.57
2019-04-06T12:45:32.103Z,18.13
2019-04-06T12:48:17.316Z,17.60
2019-04-06T12:50:47.302Z,18.40
2019-04-06T12:53:19.820Z,17.40
2019-04-06T12:55:52.604Z,17.77
2019-04-06T12:58:31.537Z,18.07
2019-04-06T13:01:07.245Z,17.20
2019-04-06T13:03:37.115Z,17.60
2019-04-06T13:06:23.551Z,17.67
2019-04-06T13:09:02.068Z,17.37
2019-04-06T13:11:41.102Z,18.53
2019-04-06T13:14:14.017Z,16.37
2019-04-06T13:16:44.621Z,18.00
2019-04-06T13:19:30.784Z,17.13
2019-04-06T13:22:18.477Z,15.57
2019-04-06T13:24:53.920Z,15.87
2019-04-06T13:27:29.908Z,14.97
2019-04-06T13:30:16.131Z,16.40
2019-04-06T13:32:48.727Z,15.87
2019-04-06T13:35:18.715Z,15.83
2019-04-06T13:37:54.697Z,16.00
2019-04-06T13:40:24.708Z,15.13
2019-04-06T13:42:55.001Z,14.93
2019-04-06T13:45:41.683Z,14.57
2019-04-06T13:48:14.652Z,15.37
2019-04-06T13:50:44.497Z,14.40
2019-04-06T13:53:31.302Z,14.67
2019-04-06T13:56:13.570Z,15.33
2019-04-06T13:58:46.488Z,13.50
2019-04-06T14:01:22.250Z,14.10
2019-04-06T14:04:00.721Z,14.67
2019-04-06T14:06:33.079Z,13.73
2019-04-06T14:09:14.904Z,15.90
2019-04-06T14:11:47.790Z,16.50
2019-04-06T14:14:33.689Z,17.47
2019-04-06T14:17:03.610Z,17.17
2019-04-06T14:19:36.325Z,18.57
2019-04-06T14:22:18.064Z,17.83
2019-04-06T14:24:50.711Z,18.23
2019-04-06T14:27:26.381Z,17.57
2019-04-06T14:29:56.861Z,17.33
2019-04-06T14:32:43.351Z,18.57
2019-04-06T14:35:19.184Z,17.37
2019-04-06T14:38:05.492Z,18.27
2019-04-06T14:40:47.037Z,18.97
2019-04-06T14:43:20.002Z,18.13
2019-04-06T14:45:52.879Z,18.43
2019-04-06T14:48:40.987Z,18.53
2019-04-06T14:51:19.622Z,17.83
2019-04-06T14:53:55.640Z,17.30
2019-04-06T14:56:28.856Z,17.20
2019-04-06T14:59:01.582Z,17.60
2019-04-06T15:01:48.933Z,17.60
2019-04-06T15:04:11.704Z,17.50
2019-04-06T15:06:41.659Z,16.50
2019-04-06T15:09:12.075Z,16.73
2019-04-06T15:11:53.805Z,16.83
2019-04-06T15:14:26.580Z,15.77
2019-04-06T15:16:56.523Z,16.40
2019-04-06T15:19:32.598Z,16.17
2019-04-06T15:22:05.499Z,16.20
2019-04-06T15:24:35.473Z,17.07
2019-04-06T15:27:11.400Z,16.77
2019-04-06T15:29:41.310Z,14.83
2019-04-06T15:32:26.067Z,15.27
2019-04-06T15:34:58.809Z,15.20
2019-04-06T15:37:40.872Z,15.00
2019-04-06T15:40:10.879Z,15.77
2019-04-06T15:42:43.379Z,14.87
2019-04-06T15:45:25.503Z,14.20
2019-04-06T15:47:55.414Z,13.10
2019-04-06T15:50:41.286Z,12.33
2019-04-06T15:53:11.222Z,12.67
2019-04-06T15:55:59.232Z,12.40
2019-04-06T15:58:41.072Z,12.43
2019-04-06T16:01:13.988Z,12.63
2019-04-06T16:03:55.882Z,12.40
2019-04-06T16:06:35.199Z,12.00
2019-04-06T16:09:21.640Z,13.13
2019-04-06T16:11:57.776Z,13.73
2019-04-06T16:14:43.831Z,12.63
2019-04-06T16:17:19.475Z,11.33
2019-04-06T16:19:58.207Z,10.50
2019-04-06T16:22:40.192Z,11.87
2019-04-06T16:25:13.316Z,12.67
2019-04-06T16:27:45.946Z,12.20
2019-04-06T16:30:19.659Z,12.37
2019-04-06T16:32:55.789Z,11.43
2019-04-06T16:35:37.759Z,12.10
2019-04-06T16:38:10.098Z,11.70
2019-04-06T16:40:40.038Z,12.60
2019-04-06T16:43:12.466Z,12.60
2019-04-06T16:45:42.405Z,12.43
2019-04-06T16:48:28.799Z,11.43
2019-04-06T16:51:10.802Z,12.03
2019-04-06T16:53:40.716Z,12.40
2019-04-06T16:56:26.813Z,13.73
2019-04-06T16:59:00.017Z,14.47
2019-04-06T17:01:29.929Z,14.27
2019-04-06T17:04:00.360Z,11.90
2019-04-06T17:06:46.421Z,11.87
2019-04-06T17:09:16.498Z,12.20
2019-04-06T17:12:02.485Z,12.23
2019-04-06T17:14:35.059Z,11.50
2019-04-06T17:17:05.010Z,11.70
2019-04-06T17:19:34.933Z,11.73
2019-04-06T17:22:04.852Z,12.33
2019-04-06T17:24:37.689Z,16.80
2019-04-06T17:27:13.170Z,36.10
2019-04-06T17:29:58.455Z,47.50
2019-04-06T17:32:36.897Z,44.80
2019-04-06T17:35:03.042Z,34.07
2019-04-06T17:37:38.536Z,24.80
2019-04-06T17:40:14.415Z,18.63
2019-04-06T17:42:50.124Z,20.80
2019-04-06T17:45:22.967Z,24.97
2019-04-06T17:47:53.336Z,21.70
2019-04-06T17:50:38.234Z,23.57
2019-04-06T17:53:11.405Z,20.00
2019-04-06T17:55:41.440Z,18.10
2019-04-06T17:58:14.567Z,15.30
2019-04-06T18:00:53.734Z,14.70
2019-04-06T18:03:39.744Z,14.40
2019-04-06T18:06:15.494Z,12.73
2019-04-06T18:08:54.115Z,13.23
2019-04-06T18:11:35.768Z,13.60
2019-04-06T18:14:04.589Z,12.90
2019-04-06T18:16:34.097Z,14.00
2019-04-06T18:19:02.390Z,13.57
2019-04-06T18:21:31.116Z,13.07
2019-04-06T18:23:59.743Z,13.50
2019-04-06T18:26:28.014Z,15.03
2019-04-06T18:28:56.594Z,15.13
2019-04-06T18:31:26.514Z,12.90
2019-04-06T18:33:54.838Z,14.00
2019-04-06T18:36:24.732Z,12.77
2019-04-06T18:38:54.969Z,12.50
2019-04-06T18:41:23.934Z,11.47
2019-04-06T18:43:52.494Z,12.20
2019-04-06T18:46:20.949Z,14.10
2019-04-06T18:48:49.251Z,15.03
2019-04-06T18:51:17.961Z,14.80
2019-04-06T18:53:46.982Z,17.13
2019-04-06T18:56:15.318Z,14.67
2019-04-06T18:58:43.770Z,13.50
2019-04-06T19:01:12.201Z,14.73
2019-04-06T19:03:40.623Z,13.57
2019-04-06T19:06:08.918Z,14.43
2019-04-06T19:08:37.583Z,15.53
2019-04-06T19:11:05.924Z,15.20
2019-04-06T19:13:34.217Z,14.07
2019-04-06T19:16:02.467Z,15.40
2019-04-06T19:18:30.996Z,13.80
2019-04-06T19:20:59.318Z,13.87
2019-04-06T19:23:27.771Z,14.50
2019-04-06T19:25:56.052Z,14.33
2019-04-06T19:28:24.774Z,14.60
2019-04-06T19:30:53.117Z,15.33
2019-04-06T19:33:24.967Z,15.10
2019-04-06T19:35:51.711Z,15.60
2019-04-06T19:38:19.977Z,14.37
2019-04-06T19:40:48.293Z,14.70
2019-04-06T19:43:17.835Z,15.00
2019-04-06T19:45:46.596Z,13.70
2019-04-06T19:48:15.250Z,14.40
2019-04-06T19:50:43.774Z,13.23
2019-04-06T19:53:12.389Z,13.43
2019-04-06T19:55:41.028Z,12.70
2019-04-06T19:58:09.359Z,13.80
2019-04-06T20:00:37.636Z,13.93
2019-04-06T20:03:05.934Z,13.87
2019-04-06T20:05:34.619Z,15.40
2019-04-06T20:08:03.021Z,14.83
2019-04-06T20:10:31.718Z,13.90
2019-04-06T20:13:00.477Z,15.57
2019-04-06T20:15:28.814Z,15.97
2019-04-06T20:17:57.057Z,17.43
2019-04-06T20:20:25.418Z,17.00
2019-04-06T20:22:53.748Z,16.23
2019-04-06T20:25:21.995Z,16.60
2019-04-06T20:27:50.279Z,15.67
2019-04-06T20:30:18.681Z,17.50
2019-04-06T20:32:46.917Z,17.83
2019-04-06T20:35:15.689Z,17.93
2019-04-06T20:37:44.090Z,18.50
2019-04-06T20:40:12.840Z,18.57
2019-04-06T20:42:41.628Z,17.43
2019-04-06T20:45:10.463Z,18.50
2019-04-06T20:47:38.753Z,21.50
2019-04-06T20:50:07.395Z,20.83
2019-04-06T20:52:36.087Z,22.90
2019-04-06T20:55:06.352Z,32.10
2019-04-06T20:57:34.857Z,22.47
2019-04-06T21:00:04.661Z,20.97
2019-04-06T21:02:32.981Z,19.80
2019-04-06T21:05:01.242Z,21.97
2019-04-06T21:07:29.527Z,23.53
2019-04-06T21:09:57.896Z,23.37
2019-04-06T21:12:26.323Z,22.53
2019-04-06T21:14:54.562Z,22.17
2019-04-06T21:17:22.853Z,19.97
2019-04-06T21:19:51.618Z,19.60
2019-04-06T21:22:19.979Z,19.50
2019-04-06T21:24:48.339Z,18.30
2019-04-06T21:27:16.585Z,18.43
2019-04-06T21:29:45.417Z,19.63
2019-04-06T21:32:13.833Z,18.70
2019-04-06T21:34:42.690Z,18.53
2019-04-06T21:37:12.099Z,18.80
2019-04-06T21:39:40.479Z,17.20
2019-04-06T21:42:08.775Z,18.73
2019-04-06T21:44:37.487Z,18.67
2019-04-06T21:47:07.394Z,20.80
2019-04-06T21:49:35.845Z,19.67
2019-04-06T21:52:04.909Z,17.27
2019-04-06T21:54:34.363Z,18.50
2019-04-06T21:57:02.831Z,18.37
2019-04-06T21:59:31.159Z,18.33
2019-04-06T22:01:59.384Z,19.03
2019-04-06T22:04:28.277Z,21.07
2019-04-06T22:06:57.286Z,21.60
2019-04-06T22:09:25.618Z,20.83
2019-04-06T22:11:53.922Z,22.37
2019-04-06T22:14:22.813Z,19.40
2019-04-06T22:16:51.203Z,18.60
2019-04-06T22:19:19.481Z,18.57
2019-04-06T22:21:48.006Z,17.87
2019-04-06T22:24:16.245Z,18.33
2019-04-06T22:26:44.557Z,20.57
2019-04-06T22:29:12.878Z,20.33
2019-04-06T22:31:41.517Z,20.83
2019-04-06T22:34:10.803Z,20.03
2019-04-06T22:36:39.169Z,19.80
2019-04-06T22:39:08.998Z,19.67
2019-04-06T22:41:37.811Z,20.13
2019-04-06T22:44:06.122Z,19.80
2019-04-06T22:46:35.318Z,19.87
2019-04-06T22:49:03.748Z,20.57
2019-04-06T22:51:32.193Z,20.13
2019-04-06T22:54:00.413Z,20.67
2019-04-06T22:56:29.357Z,18.27
2019-04-06T22:58:58.318Z,17.73
2019-04-06T23:01:28.878Z,16.97
2019-04-06T23:04:04.197Z,17.63
2019-04-06T23:06:37.044Z,18.70
2019-04-06T23:09:07.721Z,18.10
2019-04-06T23:11:36.002Z,19.83
2019-04-06T23:14:04.870Z,18.57
2019-04-06T23:16:33.203Z,18.83
2019-04-06T23:19:01.592Z,17.80
2019-04-06T23:21:29.825Z,19.33
2019-04-06T23:23:58.120Z,19.20
2019-04-06T23:26:26.396Z,18.90
2019-04-06T23:28:55.030Z,19.13
2019-04-06T23:31:23.381Z,18.73
2019-04-06T23:33:51.744Z,18.93
2019-04-06T23:36:20.021Z,20.37
2019-04-06T23:38:48.767Z,19.93
2019-04-06T23:41:17.200Z,20.07
2019-04-06T23:43:45.489Z,19.40
2019-04-06T23:46:14.156Z,22.87
2019-04-06T23:48:42.886Z,21.30
2019-04-06T23:51:11.228Z,21.63
2019-04-06T23:53:39.886Z,20.73
2019-04-06T23:56:08.198Z,19.97
2019-04-06T23:58:36.482Z,19.43
